Time;durP1;ratioP1;P1;durP2;ratioP2;P2;SDS_P1;SDS_P2;PMS_P1;PMS_P2;Temp;Humidity;BMP_temperature;BMP_pressure;BME280_temperature;BME280_humidity;BME280_pressure;Samples;Min_cycle;Max_cycle;Signal;HPM_P1;HPM_P2
2022/02/04 00:24:45;;;;;;;3.78;2.08;;;20.90;57.10;;;;;;5010176;28;20495;-67
2022/02/04 00:27:17;;;;;;;2.63;1.52;;;20.90;57.10;;;;;;4995796;28;20038;-67
2022/02/04 00:30:05;;;;;;;3.95;1.80;;;20.90;57.00;;;;;;5032971;28;20142;-67
2022/02/04 00:32:33;;;;;;;4.05;1.92;;;20.90;57.00;;;;;;5033209;28;20033;-67
2022/02/04 00:40:17;;;;;;;2.78;1.90;;;20.90;57.10;;;;;;5074363;28;20407;-68
2022/02/04 00:42:43;;;;;;;3.03;1.80;;;20.90;57.00;;;;;;5075474;28;20036;-68
2022/02/04 00:45:18;;;;;;;3.28;1.95;;;20.90;57.10;;;;;;5075345;28;20448;-68
2022/02/04 00:47:50;;;;;;;3.15;1.90;;;20.90;57.00;;;;;;5074899;28;20073;-68
2022/02/04 00:50:29;;;;;;;4.07;2.17;;;21.00;57.10;;;;;;5074077;28;20024;-67
2022/02/04 00:53:13;;;;;;;2.20;1.80;;;21.00;57.10;;;;;;5074283;28;20021;-67
2022/02/04 00:55:48;;;;;;;2.10;1.60;;;20.90;57.10;;;;;;5073737;28;20035;-67
2022/02/04 01:28:21;;;;;;;2.80;1.55;;;20.90;57.30;;;;;;5094823;28;20100;-67
2022/02/04 01:30:47;;;;;;;1.83;1.70;;;20.90;57.30;;;;;;5093258;28;20063;-67
2022/02/04 01:33:13;;;;;;;2.88;1.75;;;20.90;57.20;;;;;;5094713;28;20062;-68
2022/02/04 01:35:39;;;;;;;2.15;1.73;;;20.90;57.20;;;;;;5093397;28;20104;-68
2022/02/04 01:38:04;;;;;;;2.22;1.42;;;20.90;57.20;;;;;;5094082;28;20056;-67
2022/02/04 01:40:30;;;;;;;1.83;1.63;;;20.90;57.20;;;;;;5094602;28;20107;-67
2022/02/04 01:42:56;;;;;;;1.95;1.42;;;21.00;57.20;;;;;;5094459;28;20028;-67
2022/02/04 01:45:21;;;;;;;1.60;1.50;;;21.00;57.20;;;;;;5092997;28;20020;-67
2022/02/04 01:47:56;;;;;;;2.67;1.60;;;20.90;57.20;;;;;;5094371;28;20027;-68
2022/02/04 01:50:27;;;;;;;2.22;1.77;;;21.00;57.20;;;;;;5081771;28;20024;-68
2022/02/04 01:52:54;;;;;;;2.08;1.48;;;20.90;57.20;;;;;;5072908;28;20103;-67
2022/02/04 01:55:20;;;;;;;2.55;1.58;;;21.00;57.20;;;;;;5072973;28;20020;-68
2022/02/04 01:57:45;;;;;;;2.22;1.58;;;21.00;57.20;;;;;;5073746;28;20038;-67
2022/02/04 02:00:11;;;;;;;2.50;1.40;;;21.00;57.20;;;;;;5072780;28;20478;-67
2022/02/04 02:02:37;;;;;;;2.45;1.63;;;21.00;57.20;;;;;;5073038;28;20029;-68
2022/02/04 02:05:03;;;;;;;1.83;1.48;;;21.00;57.20;;;;;;5094153;28;20020;-67
2022/02/04 02:07:29;;;;;;;2.38;1.30;;;21.00;57.30;;;;;;5093125;28;20020;-68
2022/02/04 02:10:07;;;;;;;1.92;1.67;;;21.00;57.30;;;;;;5092759;28;20031;-68
2022/02/04 02:12:44;;;;;;;4.13;1.67;;;21.00;57.30;;;;;;5093066;28;20032;-68
2022/02/04 02:42:34;;;;;;;1.83;1.25;;;20.90;57.30;;;;;;5092515;28;20055;-67
2022/02/04 03:03:13;;;;;;;1.85;1.15;;;21.00;57.40;;;;;;5035622;28;20037;-68
2022/02/04 03:05:38;;;;;;;1.48;1.20;;;21.00;57.30;;;;;;5034259;28;20017;-68
2022/02/04 03:08:04;;;;;;;1.55;1.23;;;21.00;57.40;;;;;;5034010;28;20390;-68
2022/02/04 03:10:30;;;;;;;2.13;1.30;;;21.00;57.30;;;;;;5034107;28;20035;-67
2022/02/04 03:12:56;;;;;;;1.40;1.30;;;21.00;57.30;;;;;;5033547;28;20087;-68
2022/02/04 03:15:21;;;;;;;1.48;1.20;;;21.00;57.30;;;;;;5050617;28;20041;-68
2022/02/04 03:17:56;;;;;;;1.50;1.40;;;21.00;57.40;;;;;;5050247;28;20427;-67
2022/02/04 03:20:21;;;;;;;1.38;1.02;;;21.00;57.30;;;;;;5034976;28;20028;-68
2022/02/04 03:22:48;;;;;;;1.67;1.10;;;21.00;57.30;;;;;;5050382;28;20051;-67
2022/02/04 03:25:16;;;;;;;1.35;1.02;;;21.00;57.40;;;;;;5050445;28;20108;-67
2022/02/04 03:27:49;;;;;;;1.52;1.17;;;21.00;57.30;;;;;;5049748;28;20074;-68
2022/02/04 03:30:24;;;;;;;1.60;1.30;;;21.00;57.30;;;;;;5076098;28;20406;-68
2022/02/04 03:32:57;;;;;;;1.58;1.20;;;21.00;57.30;;;;;;5092645;28;20107;-67
2022/02/04 03:35:24;;;;;;;1.45;1.00;;;21.00;57.40;;;;;;5092858;28;20035;-68
2022/02/04 03:37:52;;;;;;;2.13;1.20;;;21.00;57.30;;;;;;5091175;28;20035;-67
2022/02/04 03:40:17;;;;;;;2.03;1.20;;;21.00;57.30;;;;;;5091370;28;20055;-68
2022/02/04 03:42:47;;;;;;;1.65;1.20;;;21.00;57.30;;;;;;5091096;28;20064;-68
2022/02/04 03:45:13;;;;;;;1.25;1.10;;;21.00;57.30;;;;;;5091278;28;20080;-68
2022/02/04 03:47:39;;;;;;;2.80;1.40;;;21.00;57.30;;;;;;5092269;28;20020;-68
2022/02/04 03:50:05;;;;;;;2.63;1.23;;;21.00;57.30;;;;;;5082133;28;20069;-68
2022/02/04 03:52:31;;;;;;;1.73;1.10;;;21.00;58.30;;;;;;5072344;28;20035;-67
2022/02/04 03:54:56;;;;;;;1.98;0.98;;;21.00;57.30;;;;;;5071137;28;20064;-67
2022/02/04 03:57:22;;;;;;;1.38;0.80;;;21.00;57.30;;;;;;5070788;28;20025;-67
2022/02/04 03:59:47;;;;;;;1.33;0.90;;;20.90;57.30;;;;;;5070699;28;20398;-67
2022/02/04 04:02:14;;;;;;;1.67;1.15;;;21.00;57.30;;;;;;5074282;28;20489;-68
2022/02/04 04:04:40;;;;;;;3.25;1.13;;;21.00;57.30;;;;;;5093671;28;20024;-68
2022/02/04 04:07:06;;;;;;;1.50;1.20;;;21.00;57.40;;;;;;5095245;28;20110;-67
2022/02/04 04:09:34;;;;;;;2.15;1.00;;;20.90;57.30;;;;;;5095072;28;20052;-68
2022/02/04 04:11:59;;;;;;;1.48;0.88;;;20.90;57.30;;;;;;5095227;28;20035;-67
2022/02/04 04:14:25;;;;;;;1.25;0.95;;;20.90;57.30;;;;;;5095222;28;20099;-67
2022/02/04 04:16:51;;;;;;;1.33;1.05;;;20.90;57.30;;;;;;5096219;28;20024;-67
2022/02/04 04:19:16;;;;;;;1.05;0.95;;;21.00;57.30;;;;;;5096079;28;20031;-67
2022/02/04 04:21:42;;;;;;;1.33;1.08;;;20.90;57.30;;;;;;5094888;28;20051;-67
2022/02/04 04:24:08;;;;;;;1.20;1.10;;;20.90;57.30;;;;;;5095779;28;20012;-67
2022/02/04 04:26:33;;;;;;;1.92;1.10;;;20.90;57.30;;;;;;5096155;28;20024;-68
2022/02/04 04:28:59;;;;;;;1.27;0.90;;;20.90;57.30;;;;;;5094553;28;20505;-67
2022/02/04 04:31:25;;;;;;;1.10;1.00;;;20.90;57.30;;;;;;5095954;28;20032;-67
2022/02/04 04:33:50;;;;;;;1.92;1.13;;;20.90;57.30;;;;;;5094661;28;20060;-67
2022/02/04 04:36:18;;;;;;;1.02;0.90;;;20.90;57.30;;;;;;5096126;28;20023;-68
2022/02/04 04:38:53;;;;;;;1.45;1.00;;;20.90;57.30;;;;;;5095509;28;20027;-68
2022/02/04 04:47:03;;;;;;;1.35;0.90;;;20.90;57.40;;;;;;5095979;28;20077;-68
2022/02/04 05:30:14;;;;;;;0.80;0.77;;;20.90;57.60;;;;;;5052315;28;20060;-67
2022/02/04 05:32:40;;;;;;;1.00;0.70;;;20.90;57.60;;;;;;5066643;28;20032;-68
2022/02/04 05:35:07;;;;;;;0.77;0.77;;;20.90;57.50;;;;;;5073208;28;20029;-68
2022/02/04 05:37:36;;;;;;;0.70;0.70;;;20.90;57.80;;;;;;5074256;28;20027;-68
2022/02/04 05:40:07;;;;;;;0.90;0.70;;;20.90;57.60;;;;;;5073315;28;20107;-68
2022/02/04 05:42:36;;;;;;;1.52;0.85;;;20.90;57.50;;;;;;5074458;28;20034;-67
2022/02/04 05:45:06;;;;;;;0.93;0.70;;;20.90;57.60;;;;;;5074153;28;20093;-67
2022/02/04 05:47:33;;;;;;;0.70;0.70;;;20.90;57.60;;;;;;5073308;28;20486;-67
2022/02/04 05:52:59;;;;;;;0.65;0.60;;;20.90;57.50;;;;;;5075362;28;20146;-67
2022/02/04 06:00:29;;;;;;;1.58;0.60;;;20.90;57.50;;;;;;5076144;28;20036;-67
2022/02/04 06:06:06;;;;;;;1.83;0.85;;;20.90;57.60;;;;;;5029509;28;20038;-68
2022/02/04 06:11:30;;;;;;;0.80;0.65;;;20.80;57.60;;;;;;5031736;28;20052;-68
2022/02/04 06:24:34;;;;;;;0.60;0.60;;;20.80;57.60;;;;;;5017340;28;20029;-67
2022/02/04 06:27:00;;;;;;;1.65;0.70;;;20.80;57.60;;;;;;5014996;28;20026;-67
2022/02/04 06:29:25;;;;;;;0.60;0.50;;;20.80;57.60;;;;;;5031365;28;20045;-67
2022/02/04 06:31:51;;;;;;;0.55;0.55;;;20.90;57.70;;;;;;5014897;28;20128;-67
2022/02/04 06:34:16;;;;;;;4.45;0.68;;;20.80;57.60;;;;;;5014966;28;20072;-67
2022/02/04 06:36:42;;;;;;;0.70;0.70;;;20.90;57.60;;;;;;5014311;28;20119;-67
2022/02/04 06:39:08;;;;;;;1.00;0.52;;;20.80;57.60;;;;;;5014474;28;20044;-68
2022/02/04 06:41:33;;;;;;;1.13;0.57;;;20.80;57.60;;;;;;5035769;28;20041;-68
2022/02/04 06:44:02;;;;;;;0.80;0.70;;;20.80;57.60;;;;;;5077232;28;20479;-68
2022/02/04 06:46:28;;;;;;;1.23;0.50;;;20.80;57.60;;;;;;5088316;28;20013;-67
2022/02/04 06:48:54;;;;;;;0.95;0.50;;;20.80;57.60;;;;;;5078624;28;20059;-67
2022/02/04 06:51:19;;;;;;;1.35;0.60;;;20.90;57.60;;;;;;5083617;28;20064;-67
2022/02/04 06:53:45;;;;;;;0.98;0.50;;;20.90;57.60;;;;;;5079075;28;20029;-68
2022/02/04 06:56:10;;;;;;;0.45;0.45;;;20.80;57.60;;;;;;5089159;28;20035;-68
2022/02/04 06:58:36;;;;;;;0.93;0.63;;;20.80;57.60;;;;;;5072910;28;20079;-67
2022/02/04 07:01:02;;;;;;;1.05;0.60;;;20.80;57.60;;;;;;5071591;28;20612;-68
2022/02/04 07:03:28;;;;;;;0.77;0.50;;;20.80;57.60;;;;;;5079146;28;20016;-67
2022/02/04 07:05:56;;;;;;;0.73;0.60;;;20.90;57.70;;;;;;5093080;28;20088;-67
2022/02/04 07:08:28;;;;;;;0.25;0.25;;;20.80;57.50;;;;;;5091633;28;20631;-67
2022/02/04 07:11:47;;;;;;;1.35;0.30;;;20.80;56.80;;;;;;5091876;28;20020;-67
2022/02/04 07:21:36;;;;;;;0.52;0.50;;;20.40;56.70;;;;;;5092015;28;20455;-67
2022/02/04 07:24:02;;;;;;;0.30;0.30;;;20.40;56.70;;;;;;5092875;28;20494;-67
2022/02/04 07:26:30;;;;;;;0.32;0.32;;;20.40;56.70;;;;;;5092655;28;20027;-67
2022/02/04 07:28:57;;;;;;;1.42;0.38;;;20.30;56.60;;;;;;5090692;28;20050;-67
2022/02/04 07:31:24;;;;;;;0.60;0.40;;;20.30;56.60;;;;;;5075397;28;20032;-67
2022/02/04 07:33:54;;;;;;;0.60;0.45;;;20.30;56.60;;;;;;5085238;28;20073;-70
2022/02/04 07:41:43;;;;;;;0.77;0.47;;;20.20;56.50;;;;;;5076746;28;20509;-70
2022/02/04 07:44:09;;;;;;;0.20;0.20;;;20.20;56.60;;;;;;5083053;28;20031;-70
2022/02/04 07:46:35;;;;;;;0.30;0.30;;;20.10;56.50;;;;;;5083546;28;20024;-70
2022/02/04 07:49:01;;;;;;;1.02;0.50;;;20.10;56.40;;;;;;5075432;28;20479;-70
2022/02/04 07:51:26;;;;;;;1.08;0.30;;;20.10;56.40;;;;;;5054382;28;20021;-70
2022/02/04 07:53:52;;;;;;;2.15;0.70;;;20.10;56.40;;;;;;5069898;28;20038;-70
2022/02/04 07:56:23;;;;;;;7.78;1.15;;;20.10;56.40;;;;;;5092295;28;20024;-70
2022/02/04 07:58:57;;;;;;;4.78;1.27;;;20.00;56.40;;;;;;5092046;28;20024;-70
2022/02/04 08:01:27;;;;;;;6.93;1.13;;;20.00;56.50;;;;;;5091033;28;20032;-70
2022/02/04 08:04:00;;;;;;;4.80;1.10;;;20.00;56.40;;;;;;5079850;28;20398;-70
2022/02/04 08:06:27;;;;;;;7.90;1.30;;;20.00;56.50;;;;;;5070664;28;20142;-70
2022/02/04 08:09:13;;;;;;;5.00;1.25;;;20.00;56.50;;;;;;5070879;28;20491;-70
2022/02/04 08:25:09;;;;;;;5.15;1.35;;;19.90;56.50;;;;;;5069822;28;20021;-70
2022/02/04 08:28:19;;;;;;;6.18;1.23;;;19.90;56.60;;;;;;5055304;28;20037;-70
2022/02/04 08:47:00;;;;;;;5.22;1.20;;;19.90;56.60;;;;;;5049162;28;20071;-74
2022/02/04 08:54:44;;;;;;;3.38;1.00;;;19.80;56.50;;;;;;5068697;28;20126;-74
2022/02/04 08:57:28;;;;;;;4.45;1.10;;;19.80;56.50;;;;;;5089472;28;20028;-74
2022/02/04 09:02:35;;;;;;;4.75;1.50;;;19.80;56.50;;;;;;5075043;28;20020;-74
2022/02/04 09:05:05;;;;;;;3.20;0.93;;;19.80;56.50;;;;;;5089161;28;20091;-74
2022/02/04 09:07:43;;;;;;;5.32;1.20;;;19.80;56.50;;;;;;5090326;28;20025;-74
2022/02/04 09:10:11;;;;;;;4.47;1.13;;;19.80;56.50;;;;;;5075125;28;20027;-74
2022/02/04 09:20:40;;;;;;;4.65;1.33;;;19.70;56.40;;;;;;5074820;28;20414;-74
2022/02/04 09:23:06;;;;;;;3.38;0.88;;;19.80;56.50;;;;;;5086613;28;20020;-74
2022/02/04 09:25:31;;;;;;;3.83;0.80;;;19.70;56.40;;;;;;5095064;28;20016;-74
2022/02/04 09:27:57;;;;;;;4.20;1.13;;;19.70;56.40;;;;;;5093647;28;20020;-74
2022/02/04 09:30:23;;;;;;;4.72;1.10;;;19.70;56.30;;;;;;5094266;28;20052;-74
2022/02/04 09:32:49;;;;;;;4.75;1.10;;;19.70;56.40;;;;;;5093670;28;20066;-74
2022/02/04 09:35:24;;;;;;;3.72;1.17;;;19.70;56.40;;;;;;5093574;28;20444;-74
2022/02/04 09:37:50;;;;;;;3.67;1.13;;;19.70;56.30;;;;;;5094766;28;20016;-74
2022/02/04 09:40:16;;;;;;;2.80;1.13;;;19.70;56.30;;;;;;5094803;28;20020;-74
2022/02/04 09:42:43;;;;;;;4.47;1.23;;;19.70;56.30;;;;;;5093456;28;20078;-74
2022/02/04 09:45:10;;;;;;;2.80;0.85;;;19.70;56.40;;;;;;5092918;28;20024;-74
2022/02/04 09:47:36;;;;;;;3.97;1.20;;;19.70;57.30;;;;;;5093407;28;20478;-74
2022/02/04 09:50:12;;;;;;;5.22;1.30;;;19.70;57.30;;;;;;5093446;28;20020;-74
2022/02/04 10:14:56;;;;;;;2.72;0.93;;;19.70;56.30;;;;;;5088136;28;20029;-74
2022/02/04 10:17:16;;;;;;;1.75;1.02;;;19.60;56.30;;;;;;5057439;28;20024;-74
2022/02/04 10:19:49;;;;;;;;;;;19.60;56.40;;;;;;5072792;28;20055;-74
2022/02/04 10:22:24;;;;;;;3.97;0.70;;;19.60;56.30;;;;;;5079581;28;20010;-74
2022/02/04 10:25:03;;;;;;;1.95;0.80;;;19.60;56.50;;;;;;5093908;28;20027;-74
2022/02/04 10:27:32;;;;;;;3.38;0.93;;;19.60;56.40;;;;;;5093395;28;20073;-74
2022/02/04 10:30:02;;;;;;;1.58;0.70;;;19.60;56.40;;;;;;5093794;28;20047;-74
2022/02/04 10:32:30;;;;;;;0.98;0.88;;;19.60;56.40;;;;;;5093772;28;20490;-74
2022/02/04 10:35:16;;;;;;;4.80;0.90;;;19.60;56.30;;;;;;5093590;28;20024;-74
2022/02/04 10:38:17;;;;;;;3.50;1.42;;;19.60;56.20;;;;;;5092314;28;20067;-74
2022/02/04 10:46:41;;;;;;;2.73;0.60;;;19.60;56.10;;;;;;5093551;28;20043;-74
2022/02/04 10:57:34;;;;;;;2.33;0.90;;;19.60;56.30;;;;;;5093107;28;20119;-74
2022/02/04 11:03:07;;;;;;;3.70;0.80;;;19.50;56.30;;;;;;5092150;28;20028;-74
2022/02/04 11:11:37;;;;;;;4.13;0.98;;;19.50;56.30;;;;;;5033412;28;20025;-74
2022/02/04 11:31:05;;;;;;;1.20;0.85;;;19.50;56.20;;;;;;5050154;28;20114;-74
2022/02/04 11:33:48;;;;;;;2.08;0.90;;;19.50;56.10;;;;;;5049374;28;20114;-74
2022/02/04 11:57:18;;;;;;;3.22;1.00;;;19.50;56.10;;;;;;5027575;28;20119;-74
2022/02/04 11:59:55;;;;;;;1.75;0.73;;;19.50;56.10;;;;;;5013930;28;20052;-74
2022/02/04 12:05:15;;;;;;;2.72;0.98;;;19.50;56.20;;;;;;5029958;28;20072;-74
2022/02/04 12:07:50;;;;;;;1.67;0.90;;;19.50;56.10;;;;;;5029841;28;20101;-74
2022/02/04 12:10:17;;;;;;;1.77;0.70;;;19.40;56.10;;;;;;5029781;28;20491;-74
2022/02/04 12:12:59;;;;;;;2.72;0.82;;;19.50;56.20;;;;;;5029897;28;20053;-74
2022/02/04 12:15:27;;;;;;;1.23;0.63;;;19.50;56.10;;;;;;5029995;28;20091;-74
2022/02/04 12:17:57;;;;;;;1.58;0.70;;;19.50;56.20;;;;;;5029878;28;20040;-74
2022/02/04 12:20:44;;;;;;;1.50;0.80;;;19.50;56.10;;;;;;5013498;28;20441;-74
2022/02/04 12:23:36;;;;;;;1.85;1.10;;;19.50;55.90;;;;;;5044918;28;20482;-74
2022/02/04 12:26:17;;;;;;;1.88;0.80;;;19.50;56.10;;;;;;5066673;28;20033;-74
2022/02/04 12:28:53;;;;;;;2.85;1.02;;;19.50;56.20;;;;;;5075801;28;20084;-74
2022/02/04 12:31:30;;;;;;;1.38;0.70;;;19.50;56.10;;;;;;5075875;28;20098;-74
2022/02/04 12:34:05;;;;;;;1.55;0.68;;;19.50;56.10;;;;;;5075923;28;20024;-74
2022/02/04 12:36:38;;;;;;;1.60;0.80;;;19.50;56.00;;;;;;5075539;28;20017;-74
2022/02/04 12:39:14;;;;;;;1.70;0.85;;;19.50;56.10;;;;;;5073848;28;20025;-74
2022/02/04 12:41:42;;;;;;;0.80;0.63;;;19.50;56.00;;;;;;5074564;28;20025;-74
2022/02/04 12:44:18;;;;;;;1.23;0.70;;;19.50;56.10;;;;;;5074387;28;20048;-74
2022/02/04 12:46:45;;;;;;;1.33;0.75;;;19.50;56.00;;;;;;5058704;28;20025;-74
2022/02/04 12:49:13;;;;;;;1.23;0.57;;;19.50;56.00;;;;;;5074090;28;20021;-74
2022/02/04 12:54:35;;;;;;;1.77;0.90;;;19.50;56.00;;;;;;5074392;28;20072;-74
2022/02/04 13:10:22;;;;;;;1.35;0.70;;;19.50;56.00;;;;;;5075388;28;20025;-74
2022/02/04 13:12:49;;;;;;;0.82;0.60;;;19.50;55.90;;;;;;5074963;28;20577;-74
2022/02/04 13:15:14;;;;;;;1.92;0.70;;;19.50;55.90;;;;;;5074652;28;20029;-74
2022/02/04 13:17:40;;;;;;;1.85;0.68;;;19.50;55.90;;;;;;5074859;28;20085;-74
2022/02/04 13:20:06;;;;;;;1.90;0.70;;;19.50;55.80;;;;;;5073751;28;20028;-74
2022/02/04 13:22:32;;;;;;;1.25;0.60;;;19.50;55.90;;;;;;5081621;28;20031;-74
2022/02/04 13:25:12;;;;;;;2.05;0.70;;;19.50;55.80;;;;;;5093804;28;20024;-74
2022/02/04 13:27:38;;;;;;;1.50;0.70;;;19.50;55.70;;;;;;5093908;28;20099;-74
2022/02/04 13:30:23;;;;;;;1.98;0.68;;;19.50;55.80;;;;;;5093259;28;20148;-74
2022/02/04 13:32:49;;;;;;;0.75;0.50;;;19.50;55.60;;;;;;5094861;28;20509;-74
2022/02/04 13:35:38;;;;;;;1.73;0.77;;;19.50;55.80;;;;;;5092229;28;20048;-74
2022/02/04 13:38:15;;;;;;;1.60;0.43;;;19.50;55.70;;;;;;5093568;28;20031;-74
2022/02/04 13:41:01;;;;;;;1.02;0.68;;;19.50;55.70;;;;;;5093711;28;20051;-74
2022/02/04 13:43:38;;;;;;;1.60;0.88;;;19.50;55.70;;;;;;5093580;28;20035;-74
2022/02/04 13:49:02;;;;;;;1.85;0.52;;;19.50;55.80;;;;;;5093442;28;20019;-74
2022/02/04 13:51:44;;;;;;;1.63;0.80;;;19.50;55.70;;;;;;5093182;28;20468;-74
2022/02/04 13:54:25;;;;;;;1.58;0.60;;;19.50;55.70;;;;;;5094612;28;20024;-74
2022/02/04 13:57:09;;;;;;;1.23;0.52;;;19.50;55.70;;;;;;5094382;28;20054;-74
2022/02/04 13:59:49;;;;;;;1.05;0.40;;;19.50;55.60;;;;;;5093295;28;20056;-74
2022/02/04 14:02:19;;;;;;;1.90;0.70;;;19.50;55.80;;;;;;5094201;28;20129;-74
2022/02/04 14:04:56;;;;;;;1.10;0.50;;;19.50;55.70;;;;;;5092809;28;20016;-74
2022/02/04 14:07:32;;;;;;;1.42;0.70;;;19.50;55.70;;;;;;5094221;28;20054;-74
2022/02/04 14:10:07;;;;;;;1.75;0.60;;;19.50;55.60;;;;;;5092928;28;20091;-74
2022/02/04 14:12:32;;;;;;;1.08;0.40;;;19.50;55.70;;;;;;5093048;28;20028;-74
2022/02/04 14:15:00;;;;;;;1.75;0.50;;;19.50;55.70;;;;;;5082913;28;20032;-74
2022/02/04 14:17:27;;;;;;;0.77;0.60;;;19.50;55.70;;;;;;5072668;28;20100;-74
2022/02/04 14:19:53;;;;;;;0.82;0.50;;;19.50;55.70;;;;;;5055336;28;20483;-74
2022/02/04 14:22:18;;;;;;;0.77;0.50;;;19.50;55.60;;;;;;5080063;28;20060;-74
2022/02/04 14:24:44;;;;;;;1.77;0.60;;;19.50;55.60;;;;;;5093940;28;20020;-74
2022/02/04 14:27:10;;;;;;;1.13;0.57;;;19.50;55.50;;;;;;5093620;28;20426;-74
2022/02/04 14:29:45;;;;;;;2.00;0.70;;;19.50;55.60;;;;;;5092403;28;20055;-74
2022/02/04 14:32:23;;;;;;;2.03;0.77;;;19.50;55.50;;;;;;5093711;28;20021;-74
2022/02/04 14:51:48;;;;;;;1.08;0.60;;;19.50;55.50;;;;;;5050753;28;20098;-74
2022/02/04 15:02:24;;;;;;;1.45;0.52;;;19.50;55.50;;;;;;4983122;28;20040;-74
2022/02/04 15:04:51;;;;;;;0.80;0.52;;;19.50;55.50;;;;;;4995886;28;20473;-74
2022/02/04 15:07:18;;;;;;;2.28;0.60;;;19.50;55.50;;;;;;5010970;28;20041;-74
2022/02/04 15:09:52;;;;;;;1.77;0.63;;;19.50;55.50;;;;;;4994888;28;20396;-74
2022/02/04 15:12:17;;;;;;;0.90;0.50;;;19.50;55.40;;;;;;4995643;28;20026;-74
2022/02/04 15:14:43;;;;;;;1.05;0.77;;;19.50;55.40;;;;;;4978381;28;20030;-74
2022/02/04 15:17:09;;;;;;;1.92;0.70;;;19.50;55.30;;;;;;5003670;28;20045;-74
2022/02/04 15:19:36;;;;;;;1.48;0.50;;;19.50;55.30;;;;;;5030643;28;20036;-74
2022/02/04 15:22:06;;;;;;;2.88;0.55;;;19.50;55.30;;;;;;5014167;28;20022;-74
2022/02/04 15:24:32;;;;;;;1.80;0.57;;;19.50;55.20;;;;;;5014733;28;20061;-74
2022/02/04 15:26:59;;;;;;;1.75;0.60;;;19.50;55.20;;;;;;5014041;28;20052;-74
2022/02/04 15:29:24;;;;;;;1.08;0.60;;;19.50;55.20;;;;;;5022481;28;20419;-74
2022/02/04 15:31:54;;;;;;;1.55;0.77;;;19.50;55.20;;;;;;5092395;28;20028;-74
2022/02/04 15:34:22;;;;;;;1.88;0.70;;;19.50;55.20;;;;;;5091288;28;20030;-74
2022/02/04 15:36:48;;;;;;;2.28;0.80;;;19.50;55.20;;;;;;5091554;28;20028;-74
2022/02/04 15:39:16;;;;;;;1.13;0.50;;;19.50;55.20;;;;;;5091312;28;20402;-74
2022/02/04 15:41:42;;;;;;;1.17;0.50;;;19.50;55.20;;;;;;5091478;28;20099;-74
2022/02/04 15:44:20;;;;;;;0.60;0.55;;;19.50;55.20;;;;;;5091262;28;20461;-74
2022/02/04 15:47:36;;;;;;;0.98;0.60;;;19.50;55.20;;;;;;5091223;28;20024;-74
2022/02/04 15:49:56;;;;;;;0.82;0.50;;;19.50;55.30;;;;;;5080696;28;20036;-74
2022/02/04 15:52:46;;;;;;;2.45;0.75;;;19.50;55.20;;;;;;5091382;28;20503;-74
2022/02/04 15:57:59;;;;;;;2.05;0.63;;;19.50;55.20;;;;;;5090718;28;20028;-74
2022/02/04 16:05:42;;;;;;;1.08;0.65;;;19.50;55.20;;;;;;5091285;28;20101;-74
2022/02/04 16:08:11;;;;;;;1.08;0.60;;;19.50;55.20;;;;;;5091224;28;20394;-74
2022/02/04 16:10:50;;;;;;;0.77;0.50;;;19.50;55.20;;;;;;5091153;28;20390;-74
2022/02/04 16:16:23;;;;;;;0.95;0.60;;;19.50;55.20;;;;;;5049349;28;20033;-74
2022/02/04 16:19:08;;;;;;;1.33;0.60;;;19.50;55.20;;;;;;5049813;28;20040;-74
2022/02/04 16:29:38;;;;;;;1.50;0.60;;;19.50;55.20;;;;;;4985760;28;20042;-74
2022/02/04 16:32:05;;;;;;;1.13;0.70;;;19.50;55.20;;;;;;4993916;28;20038;-74
2022/02/04 16:34:30;;;;;;;1.52;0.70;;;19.50;55.20;;;;;;4977448;28;20102;-74
2022/02/04 16:37:02;;;;;;;1.75;0.82;;;19.50;55.20;;;;;;5009934;28;20133;-74
2022/02/04 16:39:27;;;;;;;2.58;0.70;;;19.50;55.20;;;;;;5009989;28;20038;-74
2022/02/04 16:42:02;;;;;;;1.48;0.60;;;19.50;55.20;;;;;;5010050;28;20091;-74
2022/02/04 16:44:30;;;;;;;0.65;0.50;;;19.50;55.20;;;;;;4979558;28;20407;-74
2022/02/04 16:47:00;;;;;;;1.05;0.50;;;19.50;55.20;;;;;;5009959;28;20036;-74
2022/02/04 16:49:27;;;;;;;2.55;0.80;;;19.50;55.20;;;;;;4997152;28;20068;-74
2022/02/04 16:51:53;;;;;;;0.65;0.43;;;19.50;55.20;;;;;;5013093;28;20053;-74
2022/02/04 16:54:19;;;;;;;1.45;0.65;;;19.50;55.10;;;;;;5013119;28;20057;-74
2022/02/04 16:56:45;;;;;;;0.93;0.60;;;19.50;55.10;;;;;;5013414;28;20526;-74
2022/02/04 16:59:11;;;;;;;1.60;0.93;;;19.50;55.10;;;;;;5029174;28;20098;-74
2022/02/04 17:01:37;;;;;;;1.15;0.60;;;19.50;55.00;;;;;;5029458;28;20034;-74
2022/02/04 17:04:04;;;;;;;1.30;0.80;;;19.50;55.10;;;;;;5014132;28;20096;-74
2022/02/04 17:06:35;;;;;;;1.25;0.70;;;19.50;55.10;;;;;;5070332;28;20025;-74
2022/02/04 17:09:20;;;;;;;1.55;0.60;;;19.50;55.00;;;;;;5070460;28;20053;-74
2022/02/04 17:11:50;;;;;;;0.88;0.50;;;19.50;55.10;;;;;;5075183;28;20073;-74
2022/02/04 17:14:16;;;;;;;1.63;0.50;;;19.50;55.10;;;;;;5074325;28;20126;-74
2022/02/04 17:16:42;;;;;;;0.90;0.52;;;19.50;55.10;;;;;;5073684;28;20111;-74
2022/02/04 17:19:13;;;;;;;0.95;0.65;;;19.50;55.10;;;;;;5073706;28;20031;-74
2022/02/04 17:21:39;;;;;;;1.42;0.70;;;19.50;55.00;;;;;;5074452;28;20498;-74
2022/02/04 17:24:07;;;;;;;0.63;0.40;;;19.50;55.00;;;;;;5093886;28;20027;-74
2022/02/04 17:26:33;;;;;;;1.00;0.60;;;19.50;55.00;;;;;;5093615;28;20443;-74
2022/02/04 17:28:58;;;;;;;1.52;0.73;;;19.50;55.00;;;;;;5093192;28;20020;-74
2022/02/04 17:31:24;;;;;;;1.20;0.60;;;19.50;55.00;;;;;;5076847;28;20020;-74
2022/02/04 17:33:49;;;;;;;0.50;0.30;;;19.50;55.00;;;;;;5093611;28;20060;-74
2022/02/04 17:36:15;;;;;;;1.52;0.60;;;19.50;55.00;;;;;;5093668;28;20030;-74
2022/02/04 17:38:42;;;;;;;1.00;0.70;;;19.50;55.00;;;;;;5094806;28;20433;-74
2022/02/04 17:41:09;;;;;;;1.40;0.70;;;19.50;55.00;;;;;;5094861;28;20016;-74
2022/02/04 17:43:36;;;;;;;2.67;0.70;;;19.50;54.90;;;;;;5093036;28;20531;-74
2022/02/04 17:46:01;;;;;;;1.92;0.70;;;19.50;55.00;;;;;;5094832;28;20081;-74
2022/02/04 17:49:09;;;;;;;0.93;0.47;;;19.50;54.90;;;;;;5094441;28;20016;-74
2022/02/04 17:53:54;;;;;;;1.40;0.60;;;19.50;55.00;;;;;;5086883;28;20429;-75
2022/02/04 17:56:52;;;;;;;1.77;0.75;;;19.50;55.00;;;;;;5093154;28;20081;-74
2022/02/04 17:59:33;;;;;;;1.85;0.60;;;19.50;55.00;;;;;;5094295;28;20020;-73
2022/02/04 18:02:11;;;;;;;1.48;0.80;;;19.50;55.00;;;;;;5094263;28;20027;-74
2022/02/04 18:07:24;;;;;;;1.00;0.50;;;19.50;55.00;;;;;;5073216;28;20101;-74
2022/02/04 18:09:50;;;;;;;0.75;0.60;;;19.50;55.10;;;;;;5073366;28;20028;-75
2022/02/04 18:14:52;;;;;;;5.95;0.70;;;19.50;55.00;;;;;;4060677;23;20127;-71
2022/02/04 18:17:19;;;;;;;1.08;0.50;;;19.50;55.00;;;;;;5012636;28;20559;-72
2022/02/04 18:19:49;;;;;;;0.82;0.52;;;19.50;55.10;;;;;;4993125;28;20072;-72
2022/02/04 18:22:16;;;;;;;3.97;0.85;;;19.50;55.20;;;;;;5028191;28;20014;-71
2022/02/04 18:24:43;;;;;;;1.80;0.70;;;19.50;55.20;;;;;;5028955;28;20104;-71
2022/02/04 18:27:10;;;;;;;1.10;0.60;;;19.50;55.30;;;;;;5013349;28;20010;-72
2022/02/04 18:29:41;;;;;;;1.27;0.63;;;19.60;55.30;;;;;;5013425;28;20033;-70
2022/02/04 18:32:08;;;;;;;0.80;0.60;;;19.60;55.20;;;;;;5012159;28;20076;-71
2022/02/04 18:34:35;;;;;;;0.88;0.50;;;19.60;55.30;;;;;;5031133;28;20124;-70
2022/02/04 18:37:04;;;;;;;1.02;0.63;;;19.70;55.20;;;;;;5015497;28;20029;-70
2022/02/04 18:40:04;;;;;;;2.10;0.80;;;19.70;55.10;;;;;;4996109;28;20026;-70
2022/02/04 18:42:41;;;;;;;2.38;0.70;;;19.70;55.10;;;;;;5013788;28;20033;-75
2022/02/04 18:45:14;;;;;;;1.23;0.68;;;19.70;55.20;;;;;;5018886;28;20087;-79
2022/02/04 18:50:45;;;;;;;1.63;0.77;;;19.80;55.30;;;;;;5029165;28;20064;-75
2022/02/04 18:53:29;;;;;;;1.85;0.82;;;19.80;55.30;;;;;;5019746;28;20096;-76
2022/02/04 18:58:24;;;;;;;0.90;0.63;;;19.90;55.30;;;;;;5031133;28;20120;-75
2022/02/04 19:00:53;;;;;;;1.50;0.60;;;19.90;55.20;;;;;;4998505;28;20041;-75
2022/02/04 19:03:25;;;;;;;1.35;0.60;;;19.90;55.20;;;;;;5015629;28;20025;-76
2022/02/04 19:08:33;;;;;;;1.52;0.60;;;20.00;55.10;;;;;;5032836;28;20570;-79
2022/02/04 19:11:00;;;;;;;1.60;0.70;;;20.00;55.10;;;;;;5000811;28;20017;-77
2022/02/04 19:13:37;;;;;;;1.10;0.65;;;20.10;55.10;;;;;;5032778;28;20558;-77
2022/02/04 19:18:45;;;;;;;1.70;0.63;;;20.10;55.10;;;;;;5015394;28;20030;-78
2022/02/04 19:21:20;;;;;;;1.23;0.70;;;20.20;55.10;;;;;;5015855;28;20482;-78
2022/02/04 19:23:50;;;;;;;1.42;0.90;;;20.20;55.10;;;;;;5015929;28;20531;-79
2022/02/04 19:26:24;;;;;;;1.58;0.70;;;20.20;55.00;;;;;;5015509;28;20077;-79
2022/02/04 19:28:51;;;;;;;1.77;0.85;;;20.20;55.00;;;;;;5015868;28;20088;-79
2022/02/04 19:31:17;;;;;;;1.05;0.55;;;20.20;55.00;;;;;;5014836;28;20037;-77
2022/02/04 19:33:45;;;;;;;1.90;0.80;;;20.30;55.00;;;;;;4997778;28;20510;-79
2022/02/04 19:36:13;;;;;;;1.52;0.70;;;20.30;54.90;;;;;;5015509;28;20025;-78
2022/02/04 19:38:39;;;;;;;1.10;0.70;;;20.30;55.00;;;;;;5032083;28;20037;-78
2022/02/04 19:41:13;;;;;;;1.30;0.70;;;20.40;54.90;;;;;;5014456;28;20102;-79
2022/02/04 19:43:42;;;;;;;1.58;0.85;;;20.40;54.90;;;;;;4998270;28;20430;-79
2022/02/04 19:46:13;;;;;;;1.23;0.60;;;20.40;54.90;;;;;;5015164;28;20428;-79